Airfield :
LOGIN :

Register | Disclaimer

   EN    FR    IT 

 










Legend :    VFR   Marginal VFR   IFR   Intensive IFR   Very Intensive IFR
Visi :
Ceiling :
>= 8 km
>= 3000ft
5 to 8 km
1000 to 3000 ft
1500m to 5 km
500 to 1000 ft
800 to 1500m
200 to 500 ft
< 800m
< 200 ft
Symbols :   Thunderstorms  Fog  Heavy snow  Heavy precipitations  Wind > 20 kt
SIGMETs :     Misc.  Thunderstorms  Icing  Turbulence  Mountain Waves  Volcanic Ashes






- Airport Elevation : 479 ft
- IATA code : DOL


LFRG - Deauville

CURRENT METAR :
  • 110000Z AUTO 27010KT 7000 -RA OVC004/// ///TCU 08/08 Q1012

EXPIRED METARs :
  • 102330Z AUTO 27014KT 3500 -RA BR BKN004/// BKN011/// BKN016/// ///TCU 08/08 Q1013
  • 102300Z AUTO 24013KT 210V270 4700 -RADZ BR BKN006/// OVC012/// ///TCU 09/08 Q1012
  • 102230Z AUTO 20014KT 170V230 6000 -DZ OVC009 09/08 Q1011
  • 102200Z AUTO 19017G28KT 9999 OVC011 10/08 Q1011
  • 102130Z AUTO 19017KT 9999 OVC012 10/07 Q1012

Expired Forecast.
ATIS : +33 2 31 65 65 36



MET'MAP, your aeronautical weather chart ! - Copyright ORBIFLY December 2007 - Disclaimer

ORBIFLY MET'MAP TEAM :

Programming & Development : Alexandra Zaïnal
Concept & original design : Baudouin d'Aumeries
Assistance for programming : Marc-Olivier Méhu
Technical & hardware support : Manuel Goepfert

Contact : metmap@orbifly.com




SOURCES & CREDITS :

   NOAA